createdAt,value
2022-09-17T00:00:39.304Z,96.89
2022-09-17T00:01:39.351Z,96.38
2022-09-17T00:02:40.100Z,96.99
2022-09-17T00:03:39.324Z,96.58
2022-09-17T00:04:39.392Z,96.58
2022-09-17T00:05:39.316Z,96.38
2022-09-17T00:06:40.264Z,96.58
2022-09-17T00:07:40.338Z,96.54
2022-09-17T00:08:40.775Z,96.99
2022-09-17T00:09:39.396Z,96.69
2022-09-17T00:10:39.350Z,97.09
2022-09-17T00:11:39.280Z,96.99
2022-09-17T00:12:40.052Z,97.09
2022-09-17T00:14:13.247Z,96.89
2022-09-17T00:14:39.139Z,97.09
2022-09-17T00:15:40.794Z,97.40
2022-09-17T00:16:40.092Z,97.20
2022-09-17T00:17:39.281Z,97.20
2022-09-17T00:18:39.346Z,97.30
2022-09-17T00:19:39.298Z,97.09
2022-09-17T00:20:40.116Z,97.20
2022-09-17T00:21:39.827Z,97.20
2022-09-17T00:22:39.149Z,97.09
2022-09-17T00:23:39.961Z,97.09
2022-09-17T00:24:39.270Z,97.30
2022-09-17T00:25:39.307Z,97.91
2022-09-17T00:26:40.122Z,98.12
2022-09-17T00:27:39.184Z,98.33
2022-09-17T00:28:39.168Z,97.50
2022-09-17T00:29:39.166Z,97.61
2022-09-17T00:30:40.071Z,98.22
2022-09-17T00:31:39.242Z,97.81
2022-09-17T00:32:39.125Z,98.28
2022-09-17T00:33:39.028Z,98.63
2022-09-17T00:34:39.580Z,99.15
2022-09-17T00:35:39.784Z,98.94
2022-09-17T00:36:39.828Z,98.53
2022-09-17T00:37:39.048Z,98.53
2022-09-17T00:38:39.065Z,99.15
2022-09-17T00:39:39.080Z,98.74
2022-09-17T00:40:39.162Z,99.25
2022-09-17T00:41:40.316Z,99.35
2022-09-17T00:42:38.989Z,99.25
2022-09-17T00:43:40.316Z,99.25
2022-09-17T00:44:39.871Z,99.45
2022-09-17T00:45:40.081Z,99.25
2022-09-17T00:46:40.191Z,99.66
2022-09-17T00:47:38.999Z,99.45
2022-09-17T00:48:39.954Z,99.76
2022-09-17T00:49:39.865Z,99.66
2022-09-17T00:50:39.866Z,99.76
2022-09-17T00:51:38.977Z,99.96
2022-09-17T00:52:38.946Z,99.99
2022-09-17T00:53:39.018Z,99.99
2022-09-17T00:54:38.934Z,99.99
2022-09-17T00:55:39.005Z,99.99
2022-09-17T00:56:39.055Z,99.99
2022-09-17T00:57:38.954Z,99.99
2022-09-17T00:58:41.295Z,99.99
2022-09-17T00:59:40.574Z,99.99
2022-09-17T01:00:39.596Z,99.99
2022-09-17T01:01:39.664Z,99.99
2022-09-17T01:02:38.975Z,99.99
2022-09-17T01:03:39.918Z,99.99
2022-09-17T01:04:40.598Z,99.99
2022-09-17T01:05:39.825Z,99.99
2022-09-17T01:06:39.969Z,99.99
2022-09-17T01:07:38.911Z,99.99
2022-09-17T01:08:39.590Z,99.99
2022-09-17T01:09:40.097Z,99.99
2022-09-17T01:10:38.792Z,99.99
2022-09-17T01:11:40.079Z,99.99
2022-09-17T01:12:48.609Z,99.99
2022-09-17T01:14:23.799Z,99.99
2022-09-17T01:15:01.793Z,99.99
2022-09-17T01:16:02.083Z,99.99
2022-09-17T01:17:15.090Z,99.99
2022-09-17T01:17:47.116Z,99.99
2022-09-17T01:18:55.172Z,99.99
2022-09-17T01:19:48.612Z,99.99
2022-09-17T01:20:47.121Z,99.99
2022-09-17T01:21:47.721Z,99.99
2022-09-17T01:30:50.497Z,99.99
2022-09-17T01:31:55.235Z,99.99
2022-09-17T01:33:12.011Z,99.99
2022-09-17T01:33:58.010Z,99.99
2022-09-17T01:35:01.387Z,99.99
2022-09-17T01:36:17.398Z,99.99
2022-09-17T01:37:07.790Z,99.99
2022-09-17T01:38:17.505Z,99.99
2022-09-17T01:39:08.604Z,99.99
2022-09-17T01:40:03.698Z,99.99
2022-09-17T01:41:02.994Z,99.99
2022-09-17T01:41:52.986Z,99.99
2022-09-17T01:42:50.221Z,99.99
2022-09-17T01:43:50.985Z,99.99
2022-09-17T01:44:50.172Z,99.99
2022-09-17T02:05:21.254Z,99.99
2022-09-17T02:06:16.125Z,99.99
2022-09-17T02:07:17.054Z,99.99
2022-09-17T02:08:35.272Z,99.99
2022-09-17T02:09:25.999Z,99.99
2022-09-17T02:10:17.992Z,99.99
2022-09-17T02:11:16.600Z,99.99
2022-09-17T02:19:54.875Z,99.99
2022-09-17T02:20:54.325Z,99.99
2022-09-17T02:21:55.424Z,99.99
2022-09-17T02:22:56.383Z,99.99
2022-09-17T02:23:55.441Z,99.99
2022-09-17T02:24:56.269Z,99.99
2022-09-17T02:25:55.458Z,99.99
2022-09-17T02:26:55.523Z,99.99
2022-09-17T02:27:55.499Z,99.99
2022-09-17T02:28:55.429Z,99.99
2022-09-17T02:29:56.037Z,99.99
2022-09-17T02:30:59.320Z,99.99
2022-09-17T02:31:57.028Z,99.99
2022-09-17T02:32:57.277Z,99.99
2022-09-17T02:34:02.775Z,99.99
2022-09-17T02:34:56.471Z,99.99
2022-09-17T02:35:56.817Z,99.99
2022-09-17T02:37:06.272Z,99.99
2022-09-17T02:50:29.870Z,99.99
2022-09-17T02:51:29.953Z,99.99
2022-09-17T02:52:29.943Z,99.99
2022-09-17T02:53:30.373Z,99.99
2022-09-17T02:54:29.861Z,99.99
2022-09-17T02:55:31.219Z,99.99
2022-09-17T02:56:31.120Z,99.99
2022-09-17T02:57:31.018Z,99.99
2022-09-17T02:58:31.176Z,99.99
2022-09-17T02:59:31.072Z,99.99
2022-09-17T03:00:31.093Z,99.99
2022-09-17T03:01:31.092Z,99.99
2022-09-17T03:02:43.165Z,99.99
2022-09-17T03:03:54.077Z,99.99
2022-09-17T03:04:32.718Z,99.99
2022-09-17T03:05:31.900Z,99.99
2022-09-17T03:06:31.944Z,99.99
2022-09-17T03:07:31.068Z,99.99
2022-09-17T03:08:30.992Z,99.99
2022-09-17T03:09:31.609Z,99.99
2022-09-17T03:10:31.654Z,99.99
2022-09-17T03:11:31.951Z,99.99
2022-09-17T03:12:31.464Z,99.99
2022-09-17T03:13:31.049Z,99.99
2022-09-17T03:14:31.876Z,99.99
2022-09-17T03:16:04.074Z,99.99
2022-09-17T03:16:30.827Z,99.99
2022-09-17T03:17:30.812Z,99.99
2022-09-17T03:18:30.798Z,99.99
2022-09-17T03:19:30.779Z,99.99
2022-09-17T03:20:30.776Z,99.99
2022-09-17T03:21:30.793Z,99.99
2022-09-17T03:22:30.732Z,99.99
2022-09-17T03:23:30.789Z,99.99
2022-09-17T03:24:30.829Z,99.99
2022-09-17T03:25:30.750Z,99.99
2022-09-17T03:26:30.841Z,99.99
2022-09-17T03:27:30.802Z,99.99
2022-09-17T03:28:30.767Z,99.99
2022-09-17T03:29:30.726Z,99.99
2022-09-17T03:30:30.716Z,99.99
2022-09-17T03:31:30.711Z,99.99
2022-09-17T03:32:30.684Z,99.99
2022-09-17T03:33:30.752Z,99.99
2022-09-17T03:34:30.733Z,99.99
2022-09-17T03:35:30.726Z,99.99
2022-09-17T03:36:30.696Z,99.99
2022-09-17T03:37:33.083Z,99.99
2022-09-17T03:38:31.764Z,99.99
2022-09-17T03:39:30.634Z,99.99
2022-09-17T03:40:30.790Z,99.99
2022-09-17T03:41:30.713Z,99.99
2022-09-17T03:42:30.641Z,99.99
2022-09-17T03:43:30.603Z,99.99
2022-09-17T03:44:30.626Z,99.99
2022-09-17T03:45:30.632Z,99.99
2022-09-17T03:46:30.655Z,99.99
2022-09-17T04:02:39.922Z,99.99
2022-09-17T04:03:39.748Z,99.99
2022-09-17T04:04:39.741Z,99.99
2022-09-17T04:05:40.868Z,99.99
2022-09-17T04:06:40.844Z,99.99
2022-09-17T04:07:40.855Z,99.99
2022-09-17T04:08:40.841Z,99.99
2022-09-17T04:09:40.899Z,99.99
2022-09-17T04:10:40.877Z,99.99
2022-09-17T04:11:40.842Z,99.99
2022-09-17T04:12:40.821Z,99.99
2022-09-17T04:13:41.825Z,99.99
2022-09-17T04:14:40.854Z,99.99
2022-09-17T04:15:40.901Z,99.99
2022-09-17T04:16:41.887Z,99.99
2022-09-17T04:17:40.794Z,99.99
2022-09-17T04:18:40.841Z,99.99
2022-09-17T04:19:40.797Z,99.99
2022-09-17T04:20:40.777Z,99.99
2022-09-17T04:21:40.759Z,99.99
2022-09-17T04:22:40.708Z,99.99
2022-09-17T04:23:40.717Z,99.99
2022-09-17T04:24:40.720Z,99.99
2022-09-17T04:25:40.689Z,99.99
2022-09-17T04:26:40.728Z,99.99
2022-09-17T04:27:40.715Z,99.99
2022-09-17T04:28:40.687Z,99.99
2022-09-17T04:29:40.662Z,99.99
2022-09-17T04:30:40.754Z,99.99
2022-09-17T04:31:40.710Z,99.99
2022-09-17T04:32:40.676Z,99.99
2022-09-17T04:33:40.635Z,99.99
2022-09-17T04:34:40.720Z,99.99
2022-09-17T04:35:40.635Z,99.99
2022-09-17T04:36:40.643Z,99.99
2022-09-17T04:37:40.642Z,99.99
2022-09-17T04:38:40.624Z,99.99
2022-09-17T04:39:40.647Z,99.99
2022-09-17T04:40:40.676Z,99.99
2022-09-17T04:41:40.600Z,99.99
2022-09-17T04:42:40.579Z,99.99
2022-09-17T04:43:40.567Z,99.99
2022-09-17T04:44:40.586Z,99.99
2022-09-17T04:45:40.579Z,99.99
2022-09-17T04:46:40.663Z,99.99
2022-09-17T04:47:40.542Z,99.99
2022-09-17T04:48:40.533Z,99.99
2022-09-17T04:49:40.542Z,99.99
2022-09-17T04:50:40.636Z,99.99
2022-09-17T04:51:40.519Z,99.99
2022-09-17T04:52:40.521Z,99.99
2022-09-17T04:53:40.509Z,99.99
2022-09-17T04:54:40.489Z,99.99
2022-09-17T04:55:40.539Z,99.99
2022-09-17T04:56:40.465Z,99.99
2022-09-17T04:57:40.462Z,99.99
2022-09-17T04:58:40.455Z,99.99
2022-09-17T04:59:40.482Z,99.99
2022-09-17T05:00:40.517Z,99.99
2022-09-17T05:01:40.543Z,99.99
2022-09-17T05:02:40.437Z,99.99
2022-09-17T05:03:40.446Z,99.99
2022-09-17T05:04:40.410Z,99.99
2022-09-17T05:05:40.424Z,99.99
2022-09-17T05:06:40.533Z,99.99
2022-09-17T05:07:40.407Z,99.99
2022-09-17T05:08:40.386Z,99.99
2022-09-17T05:09:40.393Z,99.99
2022-09-17T05:10:40.373Z,99.99
2022-09-17T05:11:40.361Z,99.99
2022-09-17T05:12:40.371Z,99.99
2022-09-17T05:13:40.348Z,99.99
2022-09-17T05:14:40.329Z,99.99
2022-09-17T05:15:40.476Z,99.99
2022-09-17T05:16:40.330Z,99.99
2022-09-17T05:17:40.365Z,99.99
2022-09-17T05:18:40.303Z,99.99
2022-09-17T05:19:40.317Z,99.99
2022-09-17T05:20:40.324Z,99.99
2022-09-17T05:21:40.274Z,99.99
2022-09-17T05:22:40.371Z,99.99
2022-09-17T05:23:40.272Z,99.99
2022-09-17T05:24:40.263Z,99.99
2022-09-17T05:25:40.243Z,99.99
2022-09-17T05:26:40.220Z,99.99
2022-09-17T05:27:40.274Z,99.99
2022-09-17T05:28:40.268Z,99.99
2022-09-17T05:29:40.233Z,99.99
2022-09-17T05:30:40.214Z,99.99
2022-09-17T05:31:41.241Z,99.99
2022-09-17T05:32:40.204Z,99.99
2022-09-17T05:33:40.190Z,99.99
2022-09-17T05:34:40.151Z,99.99
2022-09-17T05:35:40.176Z,99.99
2022-09-17T05:36:40.188Z,99.99
2022-09-17T05:37:40.153Z,99.99
2022-09-17T05:38:40.214Z,99.99
2022-09-17T05:39:40.174Z,99.99
2022-09-17T05:40:40.134Z,99.99
2022-09-17T05:41:40.102Z,99.99
2022-09-17T05:42:40.104Z,99.99
2022-09-17T05:43:40.086Z,99.99
2022-09-17T05:44:40.106Z,99.99
2022-09-17T05:45:40.087Z,99.99
2022-09-17T05:46:40.138Z,99.99
2022-09-17T05:47:40.086Z,99.99
2022-09-17T05:48:40.055Z,99.99
2022-09-17T05:49:40.067Z,99.99
2022-09-17T05:50:40.049Z,99.91
2022-09-17T05:51:40.040Z,99.99
2022-09-17T05:52:40.033Z,99.99
2022-09-17T05:53:40.037Z,99.99
2022-09-17T05:54:40.109Z,99.96
2022-09-17T05:55:41.002Z,99.91
2022-09-17T05:56:39.988Z,99.61
2022-09-17T05:57:40.996Z,99.82
2022-09-17T05:58:40.001Z,99.71
2022-09-17T05:59:39.963Z,99.41
2022-09-17T06:00:39.986Z,99.36
2022-09-17T06:01:40.000Z,98.95
2022-09-17T06:02:39.979Z,98.44
2022-09-17T06:03:39.941Z,98.08
2022-09-17T06:04:39.917Z,97.88
2022-09-17T06:05:39.917Z,97.27
2022-09-17T06:06:39.901Z,98.13
2022-09-17T06:07:39.900Z,97.27
2022-09-17T06:08:39.898Z,97.82
2022-09-17T06:09:39.890Z,98.13
2022-09-17T06:10:39.985Z,98.24
2022-09-17T06:11:39.895Z,98.13
2022-09-17T06:12:39.876Z,97.98
2022-09-17T06:13:39.884Z,98.19
2022-09-17T06:14:39.874Z,98.19
2022-09-17T06:15:39.855Z,97.16
2022-09-17T06:16:39.881Z,97.16
2022-09-17T06:17:39.843Z,97.27
2022-09-17T06:18:39.843Z,96.66
2022-09-17T06:19:39.814Z,96.80
2022-09-17T06:20:39.827Z,96.61
2022-09-17T06:21:39.826Z,96.25
2022-09-17T06:22:39.792Z,96.41
2022-09-17T06:23:39.791Z,96.04
2022-09-17T06:24:39.781Z,95.48
2022-09-17T06:25:39.791Z,94.73
2022-09-17T06:26:39.854Z,93.70
2022-09-17T06:27:39.760Z,93.76
2022-09-17T06:28:41.861Z,94.01
2022-09-17T06:29:40.737Z,93.70
2022-09-17T06:30:39.775Z,93.19
2022-09-17T06:31:39.791Z,93.65
2022-09-17T06:32:39.713Z,94.11
2022-09-17T06:33:39.733Z,94.48
2022-09-17T06:34:39.713Z,93.26
2022-09-17T06:35:39.734Z,93.07
2022-09-17T06:36:39.763Z,90.83
2022-09-17T06:37:39.687Z,90.59
2022-09-17T06:38:39.674Z,89.47
2022-09-17T06:39:39.667Z,90.44
2022-09-17T06:40:39.738Z,90.16
2022-09-17T06:41:39.670Z,85.21
2022-09-17T06:42:39.726Z,84.46
2022-09-17T06:43:39.653Z,83.89
2022-09-17T06:44:39.609Z,84.34
2022-09-17T06:45:39.611Z,85.74
2022-09-17T06:46:39.638Z,85.88
2022-09-17T06:47:39.605Z,85.82
2022-09-17T06:48:39.619Z,87.49
2022-09-17T06:49:39.580Z,87.53
2022-09-17T06:50:42.804Z,88.34
2022-09-17T06:51:40.571Z,88.75
2022-09-17T06:52:39.612Z,89.71
2022-09-17T06:53:39.570Z,89.96
2022-09-17T06:54:39.553Z,90.71
2022-09-17T06:55:39.555Z,92.13
2022-09-17T06:56:39.567Z,92.69
2022-09-17T06:57:39.653Z,93.05
2022-09-17T06:58:39.600Z,92.94
2022-09-17T06:59:39.832Z,93.05
2022-09-17T07:00:39.676Z,93.35
2022-09-17T07:01:39.560Z,93.25
2022-09-17T07:02:39.534Z,93.92
2022-09-17T07:03:39.541Z,93.12
2022-09-17T07:04:39.495Z,90.24
2022-09-17T07:05:40.100Z,89.18
2022-09-17T07:06:39.516Z,87.71
2022-09-17T07:07:39.438Z,86.39
2022-09-17T07:08:39.681Z,84.97
2022-09-17T07:09:39.615Z,87.71
2022-09-17T07:10:39.430Z,84.34
2022-09-17T07:11:39.504Z,82.94
2022-09-17T07:12:39.476Z,82.94
2022-09-17T07:13:39.423Z,82.90
2022-09-17T07:14:39.553Z,83.31
2022-09-17T07:15:39.462Z,82.53
2022-09-17T07:16:40.917Z,82.67
2022-09-17T07:17:39.421Z,84.68
2022-09-17T07:18:39.379Z,85.33
2022-09-17T07:19:39.382Z,86.08
2022-09-17T07:20:39.367Z,86.06
2022-09-17T07:21:39.443Z,86.98
2022-09-17T07:22:39.341Z,87.23
2022-09-17T07:23:39.359Z,88.24
2022-09-17T07:24:39.401Z,86.71
2022-09-17T07:25:39.348Z,83.31
2022-09-17T07:26:39.312Z,81.60
2022-09-17T07:27:39.374Z,80.47
2022-09-17T07:28:39.386Z,77.14
2022-09-17T07:29:39.303Z,78.53
2022-09-17T07:30:39.382Z,78.45
2022-09-17T07:31:39.428Z,77.57
2022-09-17T07:32:40.027Z,76.59
2022-09-17T07:33:39.293Z,76.39
2022-09-17T07:34:39.360Z,76.35
2022-09-17T07:35:39.297Z,76.19
2022-09-17T07:36:39.239Z,77.17
2022-09-17T07:37:39.274Z,76.32
2022-09-17T07:38:39.254Z,76.59
2022-09-17T07:39:39.227Z,74.96
2022-09-17T07:40:39.243Z,73.35
2022-09-17T07:41:39.213Z,70.93
2022-09-17T07:42:39.240Z,70.32
2022-09-17T07:43:40.230Z,71.97
2022-09-17T07:44:41.065Z,71.13
2022-09-17T07:45:39.170Z,69.89
2022-09-17T07:46:39.263Z,69.62
2022-09-17T07:47:39.156Z,70.16
2022-09-17T07:48:39.198Z,70.93
2022-09-17T07:49:39.152Z,71.94
2022-09-17T07:50:39.172Z,73.08
2022-09-17T07:51:40.517Z,75.21
2022-09-17T07:52:40.138Z,74.22
2022-09-17T07:53:39.169Z,71.10
2022-09-17T07:54:39.165Z,70.96
2022-09-17T07:55:39.117Z,67.21
2022-09-17T07:56:39.113Z,67.11
2022-09-17T07:57:39.075Z,66.11
2022-09-17T07:58:39.084Z,64.87
2022-09-17T07:59:39.108Z,66.84
2022-09-17T08:00:39.069Z,65.23
2022-09-17T08:01:39.243Z,67.64
2022-09-17T08:02:39.287Z,67.80
2022-09-17T08:03:39.039Z,69.31
2022-09-17T08:04:39.051Z,71.20
2022-09-17T08:05:39.076Z,70.46
2022-09-17T08:06:39.113Z,70.62
2022-09-17T08:07:39.026Z,73.38
2022-09-17T08:08:41.383Z,70.76
2022-09-17T08:09:39.009Z,70.15
2022-09-17T08:10:38.992Z,70.06
2022-09-17T08:11:55.078Z,69.59
2022-09-17T08:12:41.913Z,69.72
2022-09-17T08:13:39.011Z,69.38
2022-09-17T08:14:38.952Z,70.32
2022-09-17T08:15:38.972Z,70.29
2022-09-17T08:16:39.074Z,70.96
2022-09-17T08:17:38.989Z,69.92
2022-09-17T08:18:39.036Z,71.97
2022-09-17T08:19:38.939Z,71.77
2022-09-17T08:20:38.974Z,70.96
2022-09-17T08:21:38.970Z,72.38
2022-09-17T08:22:38.950Z,74.04
2022-09-17T08:23:38.890Z,75.12
2022-09-17T08:24:38.888Z,74.24
2022-09-17T08:25:38.860Z,73.99
2022-09-17T08:26:38.854Z,70.49
2022-09-17T08:27:38.902Z,67.63
2022-09-17T08:28:38.875Z,65.86
2022-09-17T08:29:38.887Z,65.26
2022-09-17T08:30:38.841Z,64.95
2022-09-17T08:31:38.937Z,64.36
2022-09-17T08:32:38.854Z,63.82
2022-09-17T08:33:38.814Z,62.29
2022-09-17T08:34:38.903Z,61.58
2022-09-17T08:35:38.829Z,60.68
2022-09-17T08:36:38.826Z,60.52
2022-09-17T08:37:38.789Z,61.07
2022-09-17T08:38:38.826Z,60.82
2022-09-17T08:39:38.774Z,62.08
2022-09-17T08:40:38.916Z,62.65
2022-09-17T08:41:38.759Z,64.26
2022-09-17T08:42:38.775Z,63.18
2022-09-17T08:43:38.783Z,64.56
2022-09-17T08:44:38.714Z,62.79
2022-09-17T08:45:38.722Z,63.96
2022-09-17T08:46:38.767Z,65.73
2022-09-17T08:47:39.695Z,64.82
2022-09-17T08:48:38.680Z,64.45
2022-09-17T08:49:38.697Z,64.29
2022-09-17T08:50:38.792Z,63.82
2022-09-17T08:51:38.682Z,63.75
2022-09-17T08:52:38.664Z,65.22
2022-09-17T08:53:38.637Z,65.48
2022-09-17T08:54:38.645Z,66.05
2022-09-17T08:55:38.653Z,69.14
2022-09-17T08:56:38.705Z,70.25
2022-09-17T08:57:38.646Z,68.87
2022-09-17T08:58:38.586Z,70.02
2022-09-17T08:59:38.625Z,69.61
2022-09-17T09:00:38.598Z,69.78
2022-09-17T09:01:38.738Z,71.03
2022-09-17T09:02:38.828Z,71.23
2022-09-17T09:03:38.581Z,71.00
2022-09-17T09:04:38.610Z,73.63
2022-09-17T09:05:38.587Z,70.39
2022-09-17T09:06:38.649Z,71.50
2022-09-17T09:07:38.534Z,71.09
2022-09-17T09:08:38.581Z,70.79
2022-09-17T09:09:38.582Z,72.92
2022-09-17T09:10:38.530Z,74.07
2022-09-17T09:11:38.578Z,74.24
2022-09-17T09:12:38.484Z,75.15
2022-09-17T09:13:38.543Z,75.59
2022-09-17T09:14:38.512Z,75.22
2022-09-17T09:22:24.045Z,78.62
2022-09-17T09:24:50.769Z,78.48
2022-09-17T09:25:47.983Z,77.77
2022-09-17T09:26:58.718Z,77.67
2022-09-17T09:27:50.162Z,77.87
2022-09-17T10:14:12.334Z,74.54
2022-09-17T10:15:12.321Z,72.72
2022-09-17T10:45:10.168Z,60.81
2022-09-17T10:50:06.743Z,61.03
2022-09-17T10:54:23.289Z,60.75
2022-09-17T10:54:50.916Z,61.08
2022-09-17T10:55:44.567Z,60.84
2022-09-17T10:56:43.589Z,62.59
2022-09-17T10:57:44.530Z,63.52
2022-09-17T10:58:44.293Z,65.75
2022-09-17T10:59:43.516Z,68.91
2022-09-17T11:00:43.578Z,70.69
2022-09-17T11:01:43.731Z,71.57
2022-09-17T11:02:44.847Z,71.73
2022-09-17T12:26:54.698Z,59.73
2022-09-17T12:27:27.769Z,60.66
2022-09-17T12:28:35.587Z,61.07
2022-09-17T12:29:28.836Z,60.77
2022-09-17T12:30:29.798Z,59.99
2022-09-17T12:31:29.812Z,62.31
2022-09-17T12:32:28.908Z,59.38
2022-09-17T12:34:08.770Z,61.00
2022-09-17T12:34:42.301Z,59.76
2022-09-17T12:39:35.575Z,59.56
2022-09-17T12:39:57.616Z,59.42
2022-09-17T12:40:57.535Z,59.42
2022-09-17T12:44:23.248Z,60.16
2022-09-17T12:44:44.164Z,60.06
2022-09-17T12:45:48.585Z,60.97
2022-09-17T12:46:46.661Z,59.89
2022-09-17T12:47:44.162Z,59.69
2022-09-17T12:48:45.391Z,60.97
2022-09-17T12:49:45.422Z,59.73
2022-09-17T12:52:38.397Z,59.35
2022-09-17T12:53:38.392Z,61.04
2022-09-17T12:54:43.082Z,60.71
2022-09-17T12:55:44.988Z,60.51
2022-09-17T12:56:38.382Z,60.94
2022-09-17T12:57:38.389Z,60.57
2022-09-17T12:58:38.353Z,61.35
2022-09-17T12:59:39.578Z,60.00
2022-09-17T13:00:39.671Z,59.20
2022-09-17T13:01:39.618Z,60.88
2022-09-17T13:02:40.685Z,60.55
2022-09-17T13:03:39.567Z,59.64
2022-09-17T13:04:59.953Z,60.68
2022-09-17T13:05:43.238Z,60.00
2022-09-17T13:06:39.637Z,61.04
2022-09-17T13:07:39.593Z,61.07
2022-09-17T13:08:39.503Z,61.77
2022-09-17T13:09:39.523Z,60.80
2022-09-17T13:10:40.298Z,63.05
2022-09-17T13:11:41.223Z,63.48
2022-09-17T13:12:39.625Z,63.41
2022-09-17T13:13:39.453Z,62.26
2022-09-17T13:14:39.495Z,62.99
2022-09-17T13:15:39.579Z,64.34
2022-09-17T13:16:39.537Z,66.50
2022-09-17T13:17:39.428Z,69.78
2022-09-17T13:18:41.795Z,72.75
2022-09-17T13:19:41.449Z,74.58
2022-09-17T13:20:39.441Z,74.41
2022-09-17T13:25:29.250Z,75.09
2022-09-17T13:26:29.349Z,76.31
2022-09-17T13:27:29.975Z,75.35
2022-09-17T13:28:29.323Z,74.81
2022-09-17T13:29:29.267Z,75.62
2022-09-17T13:30:29.242Z,74.48
2022-09-17T13:31:29.408Z,73.63
2022-09-17T13:32:31.197Z,73.22
2022-09-17T13:33:31.199Z,73.66
2022-09-17T13:34:30.545Z,74.44
2022-09-17T13:35:30.539Z,71.50
2022-09-17T13:36:30.409Z,71.44
2022-09-17T13:37:30.362Z,72.38
2022-09-17T13:38:30.398Z,71.80
2022-09-17T13:39:30.450Z,72.48
2022-09-17T13:40:30.486Z,72.28
2022-09-17T13:41:30.427Z,71.53
2022-09-17T13:42:30.365Z,72.96
2022-09-17T13:43:30.404Z,72.99
2022-09-17T13:44:30.449Z,71.94
2022-09-17T13:45:31.059Z,70.89
2022-09-17T13:46:30.360Z,71.70
2022-09-17T13:47:30.409Z,71.60
2022-09-17T13:48:30.272Z,71.50
2022-09-17T13:49:30.339Z,69.89
2022-09-17T13:50:30.252Z,70.49
2022-09-17T13:52:03.403Z,68.47
2022-09-17T13:52:30.234Z,69.48
2022-09-17T13:53:31.385Z,69.51
2022-09-17T13:54:30.311Z,69.21
2022-09-17T13:55:30.283Z,66.65
2022-09-17T13:56:30.280Z,66.96
2022-09-17T13:57:30.252Z,69.01
2022-09-17T13:58:30.224Z,66.89
2022-09-17T13:59:30.201Z,64.64
2022-09-17T14:00:31.216Z,64.67
2022-09-17T14:01:30.229Z,64.87
2022-09-17T14:02:31.099Z,64.58
2022-09-17T14:03:32.739Z,64.50
2022-09-17T14:04:30.179Z,64.70
2022-09-17T14:05:30.220Z,64.64
2022-09-17T14:06:30.284Z,64.84
2022-09-17T14:07:31.070Z,64.24
2022-09-17T14:08:30.224Z,62.80
2022-09-17T14:09:30.309Z,63.00
2022-09-17T14:10:30.190Z,61.59
2022-09-17T14:11:30.111Z,62.80
2022-09-17T14:12:30.223Z,63.00
2022-09-17T14:13:30.094Z,63.13
2022-09-17T14:14:30.095Z,62.83
2022-09-17T14:15:30.121Z,63.40
2022-09-17T14:16:30.218Z,61.79
2022-09-17T14:17:30.196Z,62.12
2022-09-17T14:18:30.085Z,62.35
2022-09-17T14:19:31.421Z,62.73
2022-09-17T14:23:25.135Z,61.17
2022-09-17T14:24:24.436Z,60.77
2022-09-17T14:25:25.531Z,60.80
2022-09-17T14:26:26.237Z,60.97
2022-09-17T14:27:26.247Z,60.26
2022-09-17T14:28:25.550Z,61.40
2022-09-17T14:29:25.687Z,59.78
2022-09-17T14:30:25.571Z,60.82
2022-09-17T14:31:25.576Z,60.93
2022-09-17T14:32:25.658Z,59.91
2022-09-17T14:33:25.646Z,60.80
2022-09-17T14:34:25.497Z,60.49
2022-09-17T14:35:25.544Z,61.23
2022-09-17T14:36:25.645Z,60.85
2022-09-17T14:37:25.502Z,62.85
2022-09-17T14:38:25.707Z,61.23
2022-09-17T14:39:25.609Z,61.94
2022-09-17T14:40:26.247Z,63.25
2022-09-17T14:41:26.249Z,60.82
2022-09-17T14:42:26.727Z,63.05
2022-09-17T14:43:25.506Z,61.51
2022-09-17T14:44:25.383Z,62.31
2022-09-17T14:45:25.462Z,62.14
2022-09-17T14:46:26.563Z,62.95
2022-09-17T14:47:26.192Z,62.95
2022-09-17T14:48:25.544Z,62.37
2022-09-17T14:49:25.429Z,62.44
2022-09-17T14:50:25.399Z,62.07
2022-09-17T14:52:02.543Z,63.08
2022-09-17T14:53:01.085Z,63.78
2022-09-17T14:53:26.401Z,63.92
2022-09-17T14:54:26.416Z,64.79
2022-09-17T14:55:25.651Z,64.49
2022-09-17T14:56:26.555Z,65.20
2022-09-17T14:57:27.109Z,64.49
2022-09-17T14:58:25.648Z,64.62
2022-09-17T14:59:29.127Z,65.26
2022-09-17T15:00:27.095Z,66.67
2022-09-17T15:01:25.672Z,67.42
2022-09-17T15:02:27.120Z,65.39
2022-09-17T15:03:27.569Z,67.82
2022-09-17T15:04:28.085Z,67.72
2022-09-17T15:05:26.582Z,68.02
2022-09-17T15:06:26.525Z,67.82
2022-09-17T15:07:27.621Z,67.65
2022-09-17T15:08:25.407Z,68.36
2022-09-17T15:09:25.455Z,67.65
2022-09-17T15:10:25.503Z,68.26
2022-09-17T15:11:27.156Z,69.17
2022-09-17T15:12:26.573Z,69.27
2022-09-17T15:13:28.605Z,69.41
2022-09-17T15:14:27.089Z,69.00
2022-09-17T15:15:28.071Z,69.10
2022-09-17T15:16:59.686Z,69.31
2022-09-17T15:17:25.900Z,69.00
2022-09-17T15:18:25.259Z,69.13
2022-09-17T15:19:25.168Z,69.74
2022-09-17T15:20:25.229Z,70.25
2022-09-17T15:21:25.246Z,69.37
2022-09-17T15:22:25.385Z,69.64
2022-09-17T15:23:25.201Z,69.64
2022-09-17T15:24:25.402Z,68.83
2022-09-17T15:25:25.349Z,69.13
2022-09-17T15:26:25.248Z,69.74
2022-09-17T15:27:25.224Z,69.41
2022-09-17T15:28:25.139Z,68.90
2022-09-17T15:29:25.315Z,69.61
2022-09-17T15:30:25.207Z,69.51
2022-09-17T15:31:25.278Z,68.09
2022-09-17T15:32:25.308Z,69.24
2022-09-17T15:33:26.174Z,68.73
2022-09-17T15:34:25.123Z,69.24
2022-09-17T15:35:25.130Z,69.13
2022-09-17T15:36:25.211Z,69.13
2022-09-17T15:37:25.139Z,69.17
2022-09-17T15:38:26.134Z,70.45
2022-09-17T15:39:59.415Z,70.25
2022-09-17T15:42:23.053Z,70.59
2022-09-17T15:43:23.062Z,70.08
2022-09-17T15:44:30.141Z,70.42
2022-09-17T15:45:24.613Z,70.92
2022-09-17T15:46:23.089Z,71.33
2022-09-17T15:47:23.072Z,71.23
2022-09-17T15:48:24.195Z,70.32
2022-09-17T15:49:24.378Z,70.89
2022-09-17T15:50:24.246Z,70.01
2022-09-17T15:51:24.225Z,71.09
2022-09-17T15:52:24.210Z,72.25
2022-09-17T15:53:24.235Z,72.92
2022-09-17T15:54:24.163Z,73.02
2022-09-17T15:55:24.865Z,72.45
2022-09-17T15:56:24.098Z,72.69
2022-09-17T15:57:24.152Z,73.87
2022-09-17T15:58:24.159Z,76.99
2022-09-17T15:59:24.147Z,76.62
2022-09-17T16:00:24.178Z,77.57
2022-09-17T16:01:24.193Z,79.03
2022-09-17T16:02:24.228Z,80.42
2022-09-17T16:03:24.092Z,80.05
2022-09-17T16:04:24.837Z,80.77
2022-09-17T16:05:24.114Z,80.36
2022-09-17T16:06:24.070Z,80.66
2022-09-17T16:07:24.070Z,80.46
2022-09-17T16:08:24.035Z,80.26
2022-09-17T16:09:24.057Z,80.56
2022-09-17T16:10:25.400Z,80.91
2022-09-17T16:11:24.152Z,78.87
2022-09-17T16:12:24.060Z,79.89
2022-09-17T16:13:28.450Z,80.19
2022-09-17T16:14:25.883Z,79.79
2022-09-17T16:15:24.088Z,78.66
2022-09-17T16:16:24.062Z,78.66
2022-09-17T16:17:24.082Z,78.66
2022-09-17T16:18:24.642Z,79.21
2022-09-17T16:19:24.116Z,79.48
2022-09-17T16:20:24.080Z,78.77
2022-09-17T16:21:23.975Z,77.85
2022-09-17T16:22:23.986Z,79.79
2022-09-17T16:23:24.043Z,79.07
2022-09-17T16:24:23.967Z,78.46
2022-09-17T16:25:24.614Z,80.09
2022-09-17T16:26:24.120Z,78.16
2022-09-17T16:27:24.121Z,77.75
2022-09-17T16:28:24.083Z,77.75
2022-09-17T16:29:24.126Z,78.46
2022-09-17T16:30:24.615Z,78.63
2022-09-17T16:31:23.968Z,77.64
2022-09-17T16:32:23.904Z,78.97
2022-09-17T16:33:23.947Z,78.87
2022-09-17T16:34:23.915Z,79.38
2022-09-17T16:35:24.794Z,80.23
2022-09-17T16:36:23.818Z,79.62
2022-09-17T16:37:23.878Z,80.23
2022-09-17T16:38:23.932Z,80.64
2022-09-17T16:39:24.051Z,80.74
2022-09-17T16:40:23.960Z,80.43
2022-09-17T16:41:23.811Z,80.54
2022-09-17T16:42:23.812Z,80.54
2022-09-17T16:43:23.853Z,80.54
2022-09-17T16:44:23.873Z,81.04
2022-09-17T16:45:28.714Z,80.50
2022-09-17T16:46:25.950Z,80.43
2022-09-17T16:47:23.846Z,80.23
2022-09-17T16:48:23.882Z,80.54
2022-09-17T16:49:25.706Z,80.43
2022-09-17T16:50:23.881Z,80.94
2022-09-17T16:51:24.386Z,81.18
2022-09-17T16:52:23.831Z,80.88
2022-09-17T16:53:24.047Z,80.84
2022-09-17T16:54:24.459Z,81.25
2022-09-17T16:55:23.790Z,81.49
2022-09-17T16:56:23.996Z,81.59
2022-09-17T16:57:24.494Z,81.18
2022-09-17T16:58:24.033Z,82.41
2022-09-17T16:59:24.267Z,81.80
2022-09-17T17:00:24.558Z,82.41
2022-09-17T17:01:23.890Z,82.14
2022-09-17T17:02:23.747Z,81.73
2022-09-17T17:03:25.205Z,82.04